Time;durP1;ratioP1;P1;durP2;ratioP2;P2;SDS_P1;SDS_P2;PMS_P1;PMS_P2;Temp;Humidity;BMP_temperature;BMP_pressure;BME280_temperature;BME280_humidity;BME280_pressure;Samples;Min_cycle;Max_cycle;Signal;HPM_P1;HPM_P2
2023/08/17 00:02:13;;;;;;;259.77;240.70;;;;;;;;;;5030564;28;20513;-79
2023/08/17 00:04:41;;;;;;;524.65;473.92;;;;;;;;;;5030846;28;20903;-79
2023/08/17 00:07:08;;;;;;;354.00;326.02;;;;;;;;;;5013416;28;20799;-79
2023/08/17 00:09:35;;;;;;;498.55;454.02;;;;;;;;;;5032198;28;20524;-78
2023/08/17 00:12:05;;;;;;;447.83;410.60;;;;;;;;;;5006011;28;20423;-79
2023/08/17 00:14:32;;;;;;;540.88;487.90;;;;;;;;;;5015410;28;20974;-78
2023/08/17 00:17:00;;;;;;;340.17;313.98;;;;;;;;;;5016513;28;20437;-79
2023/08/17 00:19:27;;;;;;;374.15;345.40;;;;;;;;;;5029800;28;20437;-79
2023/08/17 00:21:55;;;;;;;504.38;459.67;;;;;;;;;;5024368;28;20552;-79
2023/08/17 00:24:22;;;;;;;430.65;394.42;;;;;;;;;;5019564;28;20526;-79
2023/08/17 00:26:49;;;;;;;134.40;124.35;;;;;;;;;;5017855;28;20469;-79
2023/08/17 00:29:17;;;;;;;4.47;4.07;;;;;;;;;;5029104;28;20521;-79
2023/08/17 00:31:44;;;;;;;79.85;74.90;;;;;;;;;;5027870;28;20651;-79
2023/08/17 00:34:11;;;;;;;195.70;181.55;;;;;;;;;;5013228;28;21139;-79
2023/08/17 00:36:38;;;;;;;294.20;271.73;;;;;;;;;;5012342;28;20447;-79
2023/08/17 00:39:06;;;;;;;126.30;117.18;;;;;;;;;;5030577;28;20439;-79
2023/08/17 00:41:33;;;;;;;252.93;234.00;;;;;;;;;;5019412;28;20428;-79
2023/08/17 00:44:00;;;;;;;445.63;408.70;;;;;;;;;;5016093;28;20440;-79
2023/08/17 00:46:30;;;;;;;495.95;452.10;;;;;;;;;;5032619;28;20447;-79
2023/08/17 00:48:58;;;;;;;363.13;334.63;;;;;;;;;;5013202;28;20579;-79
2023/08/17 00:51:25;;;;;;;75.18;70.43;;;;;;;;;;5029707;28;20449;-79
2023/08/17 00:53:55;;;;;;;42.50;39.67;;;;;;;;;;5013713;28;20454;-79
2023/08/17 00:56:25;;;;;;;386.33;354.73;;;;;;;;;;5028140;28;20540;-79
2023/08/17 00:58:52;;;;;;;78.07;72.80;;;;;;;;;;5015817;28;20982;-79
2023/08/17 01:01:20;;;;;;;85.45;79.80;;;;;;;;;;5011714;28;20475;-79
2023/08/17 01:03:47;;;;;;;359.25;330.75;;;;;;;;;;5019933;28;20429;-80
2023/08/17 01:06:14;;;;;;;369.20;340.08;;;;;;;;;;5032891;28;20421;-79
2023/08/17 01:08:44;;;;;;;354.98;326.83;;;;;;;;;;5033349;28;20518;-79
2023/08/17 01:11:32;;;;;;;117.90;109.93;;;;;;;;;;5016748;28;20926;-79
2023/08/17 01:14:10;;;;;;;16.95;15.55;;;;;;;;;;5028604;28;20524;-80
2023/08/17 01:16:56;;;;;;;247.65;229.40;;;;;;;;;;5012292;28;20760;-79
2023/08/17 01:19:33;;;;;;;406.30;373.40;;;;;;;;;;5015671;28;20443;-79
2023/08/17 01:22:11;;;;;;;327.77;301.90;;;;;;;;;;5030419;28;20445;-79
2023/08/17 01:24:39;;;;;;;361.55;333.00;;;;;;;;;;5031994;28;20937;-80
2023/08/17 01:27:06;;;;;;;93.45;87.82;;;;;;;;;;5030999;28;20500;-79
2023/08/17 01:29:33;;;;;;;325.92;300.55;;;;;;;;;;5030034;28;20473;-79
2023/08/17 01:32:01;;;;;;;521.67;472.58;;;;;;;;;;5030220;28;20464;-79
2023/08/17 01:34:30;;;;;;;285.27;261.80;;;;;;;;;;5015042;28;20425;-79
2023/08/17 01:36:59;;;;;;;235.48;217.85;;;;;;;;;;5026835;28;20536;-79
2023/08/17 01:39:28;;;;;;;337.63;310.70;;;;;;;;;;5017142;28;20936;-79
2023/08/17 01:41:59;;;;;;;27.25;25.08;;;;;;;;;;5014702;28;20777;-79
2023/08/17 01:44:27;;;;;;;7.80;6.55;;;;;;;;;;5011918;28;20514;-79
2023/08/17 01:46:54;;;;;;;11.77;9.87;;;;;;;;;;5028602;28;20445;-79
2023/08/17 01:49:22;;;;;;;4.82;3.38;;;;;;;;;;5018937;28;20856;-79
2023/08/17 01:51:49;;;;;;;7.57;4.13;;;;;;;;;;5014583;28;20453;-79
2023/08/17 01:54:19;;;;;;;12.90;4.65;;;;;;;;;;5016935;28;20461;-79
2023/08/17 01:56:46;;;;;;;8.95;4.20;;;;;;;;;;5028105;28;20575;-79
2023/08/17 01:59:14;;;;;;;35.22;32.10;;;;;;;;;;5027437;28;20441;-79
2023/08/17 02:01:41;;;;;;;9.68;4.88;;;;;;;;;;5027885;28;20506;-78
2023/08/17 02:04:08;;;;;;;9.77;4.70;;;;;;;;;;5032927;28;20514;-78
2023/08/17 02:06:36;;;;;;;12.40;4.90;;;;;;;;;;5018835;28;20491;-79
2023/08/17 02:09:03;;;;;;;10.38;5.00;;;;;;;;;;5018068;28;20525;-79
2023/08/17 02:11:30;;;;;;;12.30;5.50;;;;;;;;;;5012757;28;20438;-79
2023/08/17 02:13:57;;;;;;;9.63;5.20;;;;;;;;;;5015702;28;20480;-79
2023/08/17 02:16:24;;;;;;;16.15;5.85;;;;;;;;;;5031934;28;20970;-79
2023/08/17 02:18:52;;;;;;;16.02;6.22;;;;;;;;;;5012049;28;20441;-79
2023/08/17 02:21:19;;;;;;;19.77;6.63;;;;;;;;;;5025696;28;20443;-79
2023/08/17 02:23:46;;;;;;;19.57;7.13;;;;;;;;;;5014548;28;20428;-79
2023/08/17 02:26:14;;;;;;;20.50;6.88;;;;;;;;;;5033293;28;20433;-78
2023/08/17 02:28:44;;;;;;;15.65;8.13;;;;;;;;;;5032520;28;20439;-80
2023/08/17 02:31:11;;;;;;;13.77;7.03;;;;;;;;;;5017095;28;20503;-80
2023/08/17 02:33:38;;;;;;;15.82;6.07;;;;;;;;;;5033891;28;20652;-80
2023/08/17 02:36:06;;;;;;;18.92;6.95;;;;;;;;;;5019522;28;20432;-80
2023/08/17 02:38:33;;;;;;;128.63;118.60;;;;;;;;;;5033169;28;20530;-81
2023/08/17 02:41:00;;;;;;;15.00;9.70;;;;;;;;;;5030544;28;20433;-81
2023/08/17 02:43:28;;;;;;;42.20;39.13;;;;;;;;;;5027396;28;20429;-79
2023/08/17 02:45:55;;;;;;;55.65;52.05;;;;;;;;;;5026225;28;20967;-80
2023/08/17 02:48:22;;;;;;;9.77;4.78;;;;;;;;;;5032679;28;20520;-80
2023/08/17 02:50:50;;;;;;;15.35;9.45;;;;;;;;;;5022611;28;20553;-80
2023/08/17 02:53:17;;;;;;;137.18;127.57;;;;;;;;;;5035147;28;20975;-80
2023/08/17 02:55:44;;;;;;;98.05;91.68;;;;;;;;;;5018940;28;20516;-79
2023/08/17 02:58:11;;;;;;;10.75;5.00;;;;;;;;;;5017705;28;20429;-79
2023/08/17 03:00:38;;;;;;;8.90;4.70;;;;;;;;;;5033691;28;20436;-79
2023/08/17 03:03:08;;;;;;;8.40;4.85;;;;;;;;;;5034746;28;20434;-80
2023/08/17 03:05:39;;;;;;;9.93;4.78;;;;;;;;;;5033835;28;21010;-79
2023/08/17 03:08:06;;;;;;;10.52;4.72;;;;;;;;;;5019340;28;20560;-79
2023/08/17 03:10:33;;;;;;;26.15;23.98;;;;;;;;;;5022149;28;20421;-79
2023/08/17 03:13:00;;;;;;;100.45;93.18;;;;;;;;;;5041596;28;20940;-79
2023/08/17 03:15:27;;;;;;;104.88;96.75;;;;;;;;;;5012896;28;20576;-79
2023/08/17 03:17:55;;;;;;;18.50;15.02;;;;;;;;;;5013190;28;20432;-78
2023/08/17 03:20:22;;;;;;;12.43;9.82;;;;;;;;;;5033131;28;21431;-78
2023/08/17 03:22:49;;;;;;;10.40;5.72;;;;;;;;;;5032805;28;20437;-78
2023/08/17 03:25:18;;;;;;;18.38;12.25;;;;;;;;;;5020205;28;20443;-78
2023/08/17 03:27:46;;;;;;;12.27;7.60;;;;;;;;;;5032522;28;20495;-78
2023/08/17 03:30:13;;;;;;;32.23;29.70;;;;;;;;;;5034071;28;20487;-79
2023/08/17 03:32:40;;;;;;;32.58;29.88;;;;;;;;;;5036329;28;20444;-79
2023/08/17 03:35:08;;;;;;;14.73;6.40;;;;;;;;;;5028104;28;20437;-79
2023/08/17 03:37:35;;;;;;;12.38;5.50;;;;;;;;;;5030983;28;20441;-79
2023/08/17 03:40:03;;;;;;;10.38;5.65;;;;;;;;;;5031702;28;20487;-79
2023/08/17 03:42:30;;;;;;;11.85;5.30;;;;;;;;;;5020653;28;20426;-79
2023/08/17 03:45:00;;;;;;;11.35;6.20;;;;;;;;;;5034129;28;20438;-79
2023/08/17 03:47:27;;;;;;;10.18;5.10;;;;;;;;;;5034509;28;20516;-79
2023/08/17 03:49:55;;;;;;;9.43;4.50;;;;;;;;;;5029059;28;20441;-80
2023/08/17 03:52:22;;;;;;;8.63;4.40;;;;;;;;;;5018877;28;20433;-80
2023/08/17 03:54:50;;;;;;;9.05;5.20;;;;;;;;;;5033408;28;20433;-79
2023/08/17 03:57:17;;;;;;;8.27;4.80;;;;;;;;;;5032918;28;20560;-79
2023/08/17 03:59:44;;;;;;;12.45;4.90;;;;;;;;;;5036148;28;22164;-79
2023/08/17 04:02:11;;;;;;;11.43;7.60;;;;;;;;;;5033519;28;20791;-80
2023/08/17 04:04:38;;;;;;;165.70;153.65;;;;;;;;;;5040077;28;20863;-79
2023/08/17 04:07:09;;;;;;;12.02;5.90;;;;;;;;;;5033686;28;20440;-79
2023/08/17 04:09:36;;;;;;;8.70;5.05;;;;;;;;;;5036676;28;20468;-79
2023/08/17 04:12:05;;;;;;;8.82;5.00;;;;;;;;;;5038031;28;20432;-79
2023/08/17 04:14:33;;;;;;;12.02;5.63;;;;;;;;;;5039625;28;20445;-79
2023/08/17 04:17:00;;;;;;;12.60;6.25;;;;;;;;;;5024043;28;20931;-79
2023/08/17 04:19:30;;;;;;;13.85;5.63;;;;;;;;;;5038437;28;20847;-79
2023/08/17 04:21:58;;;;;;;14.43;6.10;;;;;;;;;;5033326;28;20491;-79
2023/08/17 04:24:25;;;;;;;116.93;107.45;;;;;;;;;;5032960;28;20429;-79
2023/08/17 04:26:53;;;;;;;12.52;5.80;;;;;;;;;;5032420;28;20430;-79
2023/08/17 04:29:21;;;;;;;425.35;387.00;;;;;;;;;;5025256;28;20795;-79
2023/08/17 04:31:48;;;;;;;409.92;372.02;;;;;;;;;;5017504;28;20506;-79
2023/08/17 04:34:15;;;;;;;459.75;417.67;;;;;;;;;;5032227;28;20429;-79
2023/08/17 04:36:48;;;;;;;451.95;406.85;;;;;;;;;;5026806;28;20437;-79
2023/08/17 04:39:17;;;;;;;534.45;435.58;;;;;;;;;;5016131;28;20487;-79
2023/08/17 04:41:44;;;;;;;528.03;430.17;;;;;;;;;;5027224;28;20436;-79
2023/08/17 04:44:11;;;;;;;474.40;420.73;;;;;;;;;;5022541;28;20534;-79
2023/08/17 04:46:38;;;;;;;551.80;411.23;;;;;;;;;;5019595;28;20941;-78
2023/08/17 04:49:06;;;;;;;146.90;136.27;;;;;;;;;;5029445;28;20434;-79
2023/08/17 04:51:33;;;;;;;479.13;426.30;;;;;;;;;;5030764;28;20831;-79
2023/08/17 04:54:00;;;;;;;20.20;18.37;;;;;;;;;;5018880;28;20937;-79
2023/08/17 04:56:27;;;;;;;141.30;130.27;;;;;;;;;;5027841;28;21160;-78
2023/08/17 04:58:58;;;;;;;188.95;174.75;;;;;;;;;;5029304;28;20447;-79
2023/08/17 05:01:25;;;;;;;107.00;98.70;;;;;;;;;;5031134;28;20757;-80
2023/08/17 05:03:52;;;;;;;8.37;4.87;;;;;;;;;;5032447;28;20888;-79
2023/08/17 05:06:19;;;;;;;376.13;343.73;;;;;;;;;;5018545;28;20450;-79
2023/08/17 05:08:47;;;;;;;181.93;168.77;;;;;;;;;;5035529;28;20445;-79
2023/08/17 05:11:14;;;;;;;372.60;343.05;;;;;;;;;;5030386;28;20430;-79
2023/08/17 05:13:41;;;;;;;302.05;277.42;;;;;;;;;;5029379;28;20518;-79
2023/08/17 05:16:08;;;;;;;220.18;204.27;;;;;;;;;;5030160;28;20441;-79
2023/08/17 05:18:35;;;;;;;131.02;122.00;;;;;;;;;;5020397;28;20435;-79
2023/08/17 05:21:03;;;;;;;59.05;55.25;;;;;;;;;;5030119;28;20895;-79
2023/08/17 05:23:30;;;;;;;52.10;48.67;;;;;;;;;;5015269;28;20434;-78
2023/08/17 05:25:58;;;;;;;282.27;262.02;;;;;;;;;;5037057;28;20456;-79
2023/08/17 05:28:25;;;;;;;385.13;356.70;;;;;;;;;;5017662;28;20560;-79
2023/08/17 05:30:54;;;;;;;351.88;326.27;;;;;;;;;;5017720;28;20467;-79
2023/08/17 05:33:24;;;;;;;286.98;266.85;;;;;;;;;;5041519;28;20879;-78
2023/08/17 05:35:55;;;;;;;362.98;335.40;;;;;;;;;;5017227;28;20522;-78
2023/08/17 05:38:22;;;;;;;250.95;233.73;;;;;;;;;;5035176;28;20435;-78
2023/08/17 05:40:54;;;;;;;265.95;245.48;;;;;;;;;;5029988;28;20451;-78
2023/08/17 05:43:22;;;;;;;259.90;241.85;;;;;;;;;;5025674;28;20834;-78
2023/08/17 05:45:51;;;;;;;134.70;125.57;;;;;;;;;;5027207;28;20436;-78
2023/08/17 05:48:21;;;;;;;20.00;18.73;;;;;;;;;;5029373;28;20431;-78
2023/08/17 05:50:48;;;;;;;234.57;218.18;;;;;;;;;;4999382;28;20484;-78
2023/08/17 05:53:15;;;;;;;266.30;247.65;;;;;;;;;;5009482;28;20533;-78
2023/08/17 05:55:43;;;;;;;20.52;19.20;;;;;;;;;;5030314;28;20440;-77
2023/08/17 05:58:10;;;;;;;11.00;10.18;;;;;;;;;;5022667;28;21050;-78
2023/08/17 06:00:37;;;;;;;17.20;15.97;;;;;;;;;;5024899;28;20623;-78
2023/08/17 06:03:05;;;;;;;84.50;79.20;;;;;;;;;;5004029;28;20863;-79
2023/08/17 06:05:32;;;;;;;210.48;195.95;;;;;;;;;;5007341;28;20440;-79
2023/08/17 06:08:00;;;;;;;106.90;100.30;;;;;;;;;;5033261;28;20436;-79
2023/08/17 06:10:27;;;;;;;101.50;95.30;;;;;;;;;;5045973;28;20443;-82
2023/08/17 06:12:55;;;;;;;7.32;6.18;;;;;;;;;;5045331;28;20944;-79
2023/08/17 06:15:23;;;;;;;166.10;154.73;;;;;;;;;;5035113;28;20536;-80
2023/08/17 06:17:50;;;;;;;116.15;108.85;;;;;;;;;;5028414;28;21322;-81
2023/08/17 06:20:18;;;;;;;356.70;327.55;;;;;;;;;;5036717;28;20448;-82
2023/08/17 06:22:47;;;;;;;159.23;147.70;;;;;;;;;;5040748;28;20440;-82
2023/08/17 06:25:15;;;;;;;59.38;55.30;;;;;;;;;;5040494;28;20436;-82
2023/08/17 06:27:45;;;;;;;314.88;288.73;;;;;;;;;;5027289;28;20434;-81
2023/08/17 06:30:13;;;;;;;524.58;476.13;;;;;;;;;;5027606;28;20937;-82
2023/08/17 06:32:40;;;;;;;385.77;351.27;;;;;;;;;;5037838;28;20437;-82
2023/08/17 06:35:07;;;;;;;398.55;362.08;;;;;;;;;;5022926;28;20865;-82
2023/08/17 06:37:35;;;;;;;324.80;296.85;;;;;;;;;;5019897;28;20538;-82
2023/08/17 06:40:05;;;;;;;475.60;431.33;;;;;;;;;;5032506;28;20939;-82
2023/08/17 06:42:33;;;;;;;648.08;590.15;;;;;;;;;;5029600;28;20461;-82
2023/08/17 06:45:00;;;;;;;425.73;385.90;;;;;;;;;;5018000;28;20432;-82
2023/08/17 06:47:27;;;;;;;629.33;573.08;;;;;;;;;;5012177;28;20433;-83
2023/08/17 06:49:57;;;;;;;479.50;435.88;;;;;;;;;;5010971;28;20528;-84
2023/08/17 06:52:25;;;;;;;831.97;753.28;;;;;;;;;;5039173;28;20568;-83
2023/08/17 06:54:55;;;;;;;333.37;303.47;;;;;;;;;;5032888;28;20867;-82
2023/08/17 06:57:22;;;;;;;793.30;723.22;;;;;;;;;;5038575;28;20988;-82
2023/08/17 06:59:50;;;;;;;835.78;755.67;;;;;;;;;;5022742;28;20421;-82
2023/08/17 07:02:17;;;;;;;687.78;626.13;;;;;;;;;;5038816;28;20445;-82
2023/08/17 07:04:44;;;;;;;750.90;685.40;;;;;;;;;;5033455;28;20430;-82
2023/08/17 07:07:12;;;;;;;681.83;621.10;;;;;;;;;;5037762;28;20450;-82
2023/08/17 07:09:39;;;;;;;153.63;140.40;;;;;;;;;;5023534;28;20483;-82
2023/08/17 07:12:06;;;;;;;91.03;83.43;;;;;;;;;;5018434;28;20440;-82
2023/08/17 07:14:34;;;;;;;324.70;295.85;;;;;;;;;;5022594;28;20441;-82
2023/08/17 07:17:03;;;;;;;614.90;558.30;;;;;;;;;;5020592;28;20485;-82
2023/08/17 07:19:30;;;;;;;217.85;200.32;;;;;;;;;;5040348;28;20437;-82
2023/08/17 07:22:18;;;;;;;297.00;271.80;;;;;;;;;;5040630;28;21832;-81
2023/08/17 07:24:45;;;;;;;221.43;203.50;;;;;;;;;;5042396;28;20486;-82
2023/08/17 07:27:12;;;;;;;237.00;216.75;;;;;;;;;;5037328;28;20441;-81
2023/08/17 07:29:39;;;;;;;134.67;124.10;;;;;;;;;;5027106;28;20432;-81
2023/08/17 07:32:07;;;;;;;306.50;279.73;;;;;;;;;;5024308;28;21000;-81
2023/08/17 07:34:34;;;;;;;528.42;482.33;;;;;;;;;;5040195;28;20441;-81
2023/08/17 07:37:01;;;;;;;475.15;429.30;;;;;;;;;;5034735;28;20573;-81
2023/08/17 07:39:29;;;;;;;77.35;71.55;;;;;;;;;;5039869;28;20435;-80
2023/08/17 07:41:56;;;;;;;447.80;404.90;;;;;;;;;;5020079;28;20521;-81
2023/08/17 07:44:23;;;;;;;274.70;251.15;;;;;;;;;;5035375;28;20503;-81
2023/08/17 07:46:50;;;;;;;171.43;157.18;;;;;;;;;;5027666;28;20526;-81
2023/08/17 07:49:18;;;;;;;89.93;83.10;;;;;;;;;;5038106;28;20507;-80
2023/08/17 07:52:00;;;;;;;44.92;41.75;;;;;;;;;;5024038;28;20441;-81
2023/08/17 07:54:28;;;;;;;104.90;97.10;;;;;;;;;;5043978;28;20439;-81
2023/08/17 07:56:55;;;;;;;33.70;31.33;;;;;;;;;;5041239;28;20436;-80
2023/08/17 07:59:22;;;;;;;41.58;38.65;;;;;;;;;;5025046;28;21299;-81
2023/08/17 08:01:50;;;;;;;115.13;106.32;;;;;;;;;;5025690;28;20435;-79
2023/08/17 08:04:18;;;;;;;187.10;172.40;;;;;;;;;;5034157;28;20437;-79
2023/08/17 08:06:47;;;;;;;30.95;28.90;;;;;;;;;;5040978;28;20536;-79
2023/08/17 08:09:14;;;;;;;42.58;39.58;;;;;;;;;;5037841;28;20429;-80
2023/08/17 08:11:41;;;;;;;48.47;45.00;;;;;;;;;;5040150;28;20439;-82
2023/08/17 08:14:09;;;;;;;3.80;3.50;;;;;;;;;;5025193;28;20504;-79
2023/08/17 08:16:37;;;;;;;3.67;3.00;;;;;;;;;;5042361;28;20456;-80
2023/08/17 08:19:07;;;;;;;6.25;5.85;;;;;;;;;;5037145;28;21860;-79
2023/08/17 08:21:36;;;;;;;17.17;16.03;;;;;;;;;;5034044;28;20930;-79
2023/08/17 08:24:04;;;;;;;14.90;13.73;;;;;;;;;;5042796;28;20512;-79
2023/08/17 08:26:40;;;;;;;39.40;36.58;;;;;;;;;;5026108;28;20433;-79
2023/08/17 08:29:07;;;;;;;69.18;64.25;;;;;;;;;;5041425;28;20931;-79
2023/08/17 08:31:34;;;;;;;131.93;121.85;;;;;;;;;;5037103;28;20441;-79
2023/08/17 08:34:02;;;;;;;439.92;398.52;;;;;;;;;;5041495;28;20458;-79
2023/08/17 08:36:30;;;;;;;268.55;246.60;;;;;;;;;;5044126;28;21150;-80
2023/08/17 08:38:58;;;;;;;14.07;13.10;;;;;;;;;;5033845;28;20623;-80
2023/08/17 08:41:27;;;;;;;28.90;26.90;;;;;;;;;;5039888;28;20926;-80
2023/08/17 08:43:55;;;;;;;35.80;33.38;;;;;;;;;;5042785;28;21154;-79
2023/08/17 08:46:25;;;;;;;6.93;5.43;;;;;;;;;;5042775;28;20432;-80
2023/08/17 08:48:56;;;;;;;5.40;4.45;;;;;;;;;;5041549;28;20902;-82
2023/08/17 08:51:30;;;;;;;5.88;5.28;;;;;;;;;;5024752;28;20436;-80
2023/08/17 08:54:04;;;;;;;90.78;84.18;;;;;;;;;;5028754;28;20457;-78
2023/08/17 08:56:33;;;;;;;134.45;124.40;;;;;;;;;;5019668;28;20433;-79
2023/08/17 08:59:05;;;;;;;8.02;6.38;;;;;;;;;;5041647;28;20532;-79
2023/08/17 09:01:33;;;;;;;6.28;5.78;;;;;;;;;;5024717;28;20524;-80
2023/08/17 09:04:00;;;;;;;5.57;5.07;;;;;;;;;;5043723;28;20437;-79
2023/08/17 09:06:29;;;;;;;7.60;6.90;;;;;;;;;;5026228;28;20429;-82
2023/08/17 09:09:01;;;;;;;39.55;36.70;;;;;;;;;;5023202;28;21211;-80
2023/08/17 09:11:29;;;;;;;7.30;6.60;;;;;;;;;;5041833;28;20456;-80
2023/08/17 09:13:57;;;;;;;6.90;6.20;;;;;;;;;;5036686;28;20476;-79
2023/08/17 09:16:24;;;;;;;9.10;8.30;;;;;;;;;;5043844;28;20463;-80
2023/08/17 09:18:53;;;;;;;7.97;7.30;;;;;;;;;;5045138;28;20530;-80
2023/08/17 09:21:24;;;;;;;6.00;5.50;;;;;;;;;;5039683;28;20479;-80
2023/08/17 09:23:55;;;;;;;259.80;237.23;;;;;;;;;;5025293;28;20437;-80
2023/08/17 09:26:31;;;;;;;10.73;9.85;;;;;;;;;;5026163;28;20512;-81
2023/08/17 09:29:01;;;;;;;10.73;9.98;;;;;;;;;;5042520;28;20431;-80
2023/08/17 09:31:32;;;;;;;115.45;107.18;;;;;;;;;;5039302;28;20436;-79
2023/08/17 09:34:09;;;;;;;11.43;10.63;;;;;;;;;;5038146;28;20437;-81
2023/08/17 09:36:37;;;;;;;235.68;216.73;;;;;;;;;;5045367;28;20604;-81
2023/08/17 09:39:04;;;;;;;65.25;60.55;;;;;;;;;;5043581;28;20555;-82
2023/08/17 09:41:38;;;;;;;172.10;158.88;;;;;;;;;;5040176;28;20518;-80
2023/08/17 09:44:09;;;;;;;265.48;243.82;;;;;;;;;;5039491;28;20451;-80
2023/08/17 09:46:36;;;;;;;84.03;77.93;;;;;;;;;;5015037;28;20451;-80
2023/08/17 09:49:09;;;;;;;12.45;11.65;;;;;;;;;;5039937;28;20760;-79
2023/08/17 09:51:36;;;;;;;3.67;3.47;;;;;;;;;;5040463;28;20437;-81
2023/08/17 09:54:17;;;;;;;86.85;80.65;;;;;;;;;;5044174;28;20445;-80
2023/08/17 09:56:44;;;;;;;4.97;4.60;;;;;;;;;;5028151;28;20437;-79
2023/08/17 09:59:12;;;;;;;4.60;3.13;;;;;;;;;;5041461;28;20460;-81
2023/08/17 10:01:39;;;;;;;95.47;88.07;;;;;;;;;;5030630;28;20473;-81
2023/08/17 10:04:06;;;;;;;4.15;3.10;;;;;;;;;;5024481;28;20503;-80
2023/08/17 10:06:40;;;;;;;3.75;3.60;;;;;;;;;;5026218;28;20441;-82
2023/08/17 10:09:07;;;;;;;2.50;2.30;;;;;;;;;;5041883;28;20903;-82
2023/08/17 10:11:38;;;;;;;2.88;2.63;;;;;;;;;;5044629;28;20495;-82
2023/08/17 10:14:18;;;;;;;3.65;2.50;;;;;;;;;;5044271;28;20453;-82
2023/08/17 10:16:46;;;;;;;5.80;5.28;;;;;;;;;;5043405;28;20439;-82
2023/08/17 10:19:16;;;;;;;10.77;10.13;;;;;;;;;;5024620;28;20477;-82
2023/08/17 10:21:54;;;;;;;2.58;2.47;;;;;;;;;;5042436;28;20469;-80
2023/08/17 10:24:21;;;;;;;2.45;2.35;;;;;;;;;;5024157;28;20433;-81
2023/08/17 10:26:52;;;;;;;3.65;2.67;;;;;;;;;;5042198;28;20441;-81
2023/08/17 10:29:23;;;;;;;3.58;2.75;;;;;;;;;;5041361;28;20436;-82
2023/08/17 10:31:51;;;;;;;4.20;3.90;;;;;;;;;;5042197;28;20426;-80
2023/08/17 10:34:19;;;;;;;85.70;79.50;;;;;;;;;;5032318;28;20433;-80
2023/08/17 10:36:46;;;;;;;52.85;49.25;;;;;;;;;;5044391;28;20465;-80
2023/08/17 10:39:26;;;;;;;22.95;21.50;;;;;;;;;;5025899;28;20428;-81
2023/08/17 10:41:56;;;;;;;5.05;4.68;;;;;;;;;;5040155;28;20895;-81
2023/08/17 10:44:42;;;;;;;191.97;177.07;;;;;;;;;;5041327;28;20429;-80
2023/08/17 10:47:19;;;;;;;176.25;162.85;;;;;;;;;;5045697;28;20440;-80
2023/08/17 10:49:48;;;;;;;476.35;432.88;;;;;;;;;;5045332;28;20433;-81
2023/08/17 10:52:15;;;;;;;723.97;662.25;;;;;;;;;;5030405;28;20522;-80
2023/08/17 10:54:43;;;;;;;265.35;244.50;;;;;;;;;;5046701;28;21855;-81
2023/08/17 10:57:28;;;;;;;200.18;184.45;;;;;;;;;;5048464;28;20507;-79
2023/08/17 11:00:15;;;;;;;153.48;142.00;;;;;;;;;;5044332;28;20428;-80
2023/08/17 11:03:00;;;;;;;418.55;381.65;;;;;;;;;;5043765;28;20464;-79
2023/08/17 11:05:51;;;;;;;79.43;73.90;;;;;;;;;;5042462;28;20440;-81
2023/08/17 11:08:22;;;;;;;51.47;48.03;;;;;;;;;;5043276;28;20438;-79
2023/08/17 11:10:58;;;;;;;215.75;199.23;;;;;;;;;;5044283;28;20429;-80
2023/08/17 11:13:28;;;;;;;89.57;83.28;;;;;;;;;;5044804;28;20448;-80
2023/08/17 11:15:55;;;;;;;175.85;162.23;;;;;;;;;;5026059;28;21049;-79
2023/08/17 11:18:22;;;;;;;194.70;179.73;;;;;;;;;;5042036;28;20429;-80
2023/08/17 11:20:50;;;;;;;131.52;121.38;;;;;;;;;;5044295;28;20969;-80
2023/08/17 11:23:17;;;;;;;9.18;8.55;;;;;;;;;;5020998;28;20437;-81
2023/08/17 11:25:45;;;;;;;2.30;2.20;;;;;;;;;;5037439;28;20441;-80
2023/08/17 11:28:14;;;;;;;2.38;2.17;;;;;;;;;;5025619;28;20433;-79
2023/08/17 11:30:42;;;;;;;3.08;2.55;;;;;;;;;;5042138;28;20429;-80
2023/08/17 11:33:14;;;;;;;3.30;3.10;;;;;;;;;;5058912;28;20489;-81
2023/08/17 11:35:53;;;;;;;6.93;6.40;;;;;;;;;;5049632;28;20459;-81
2023/08/17 11:38:20;;;;;;;28.83;26.70;;;;;;;;;;5060624;28;20913;-81
2023/08/17 11:40:49;;;;;;;3.00;2.80;;;;;;;;;;5062492;28;20533;-80
2023/08/17 11:43:16;;;;;;;42.05;39.15;;;;;;;;;;5038741;28;20518;-81
2023/08/17 11:45:49;;;;;;;71.85;66.32;;;;;;;;;;5072809;28;20982;-84
2023/08/17 11:48:18;;;;;;;127.20;117.75;;;;;;;;;;5062501;28;20418;-81
2023/08/17 11:50:46;;;;;;;341.60;311.50;;;;;;;;;;5054323;28;20510;-81
2023/08/17 11:53:13;;;;;;;98.18;90.72;;;;;;;;;;5045120;28;20902;-82
2023/08/17 11:55:40;;;;;;;3.80;2.00;;;;;;;;;;5041549;28;20437;-81
2023/08/17 11:58:07;;;;;;;3.30;2.00;;;;;;;;;;5044335;28;20440;-82
2023/08/17 12:00:37;;;;;;;2.17;1.85;;;;;;;;;;5057444;28;20827;-82
2023/08/17 12:03:04;;;;;;;2.80;2.25;;;;;;;;;;5061937;28;20442;-81
2023/08/17 12:05:32;;;;;;;2.80;2.70;;;;;;;;;;5046307;28;20431;-81
2023/08/17 12:08:03;;;;;;;2.20;2.03;;;;;;;;;;5032459;28;20460;-81
2023/08/17 12:10:33;;;;;;;52.87;49.27;;;;;;;;;;5056157;28;20978;-81
2023/08/17 12:13:01;;;;;;;3.60;2.22;;;;;;;;;;5053245;28;20909;-82
2023/08/17 12:15:33;;;;;;;2.10;2.00;;;;;;;;;;5038649;28;20423;-81
2023/08/17 12:18:01;;;;;;;2.33;2.13;;;;;;;;;;5061008;28;20513;-80
2023/08/17 12:20:32;;;;;;;2.13;2.03;;;;;;;;;;5053643;28;20847;-81
2023/08/17 12:23:00;;;;;;;2.15;1.98;;;;;;;;;;5065035;28;20438;-80
2023/08/17 12:25:27;;;;;;;3.42;1.90;;;;;;;;;;5028079;28;20825;-80
2023/08/17 12:27:54;;;;;;;7.40;7.00;;;;;;;;;;5041538;28;20427;-81
2023/08/17 12:30:29;;;;;;;1.92;1.73;;;;;;;;;;5053234;28;20433;-80
2023/08/17 12:32:58;;;;;;;1.83;1.63;;;;;;;;;;5057232;28;20435;-80
2023/08/17 12:35:27;;;;;;;2.35;1.63;;;;;;;;;;5037646;28;20435;-80
2023/08/17 12:37:55;;;;;;;1.50;1.50;;;;;;;;;;5062931;28;20908;-81
2023/08/17 12:40:24;;;;;;;1.60;1.50;;;;;;;;;;5062103;28;20822;-81
2023/08/17 12:42:52;;;;;;;1.77;1.67;;;;;;;;;;5047744;28;20447;-82
2023/08/17 12:45:19;;;;;;;1.80;1.70;;;;;;;;;;5074781;28;20701;-78
2023/08/17 12:47:47;;;;;;;2.03;1.92;;;;;;;;;;5052936;28;20435;-80
2023/08/17 12:50:15;;;;;;;164.33;151.97;;;;;;;;;;5054297;28;20460;-81
2023/08/17 12:52:42;;;;;;;2.03;1.92;;;;;;;;;;5041671;28;20475;-79
2023/08/17 12:55:13;;;;;;;22.80;21.08;;;;;;;;;;5060907;28;20450;-78
2023/08/17 12:57:40;;;;;;;9.32;8.82;;;;;;;;;;5042820;28;20509;-78
2023/08/17 13:00:08;;;;;;;31.23;29.35;;;;;;;;;;5043997;28;20549;-78
2023/08/17 13:02:39;;;;;;;118.53;109.68;;;;;;;;;;5039280;28;20425;-78
2023/08/17 13:05:06;;;;;;;44.38;41.50;;;;;;;;;;5034420;28;20445;-78
2023/08/17 13:07:33;;;;;;;14.25;13.45;;;;;;;;;;5038260;28;20433;-79
2023/08/17 13:10:00;;;;;;;5.10;4.80;;;;;;;;;;5037540;28;20452;-78
2023/08/17 13:12:28;;;;;;;2.30;1.90;;;;;;;;;;5059122;28;20929;-79
2023/08/17 13:14:55;;;;;;;2.85;2.65;;;;;;;;;;5056724;28;20519;-79
2023/08/17 13:17:23;;;;;;;2.90;2.80;;;;;;;;;;5028053;28;20571;-78
2023/08/17 13:19:50;;;;;;;7.25;6.85;;;;;;;;;;5044805;28;20538;-78
2023/08/17 13:22:18;;;;;;;59.97;55.87;;;;;;;;;;5048945;28;20865;-79
2023/08/17 13:24:45;;;;;;;72.47;67.63;;;;;;;;;;5044823;28;20434;-78
2023/08/17 13:27:13;;;;;;;89.15;83.05;;;;;;;;;;5035169;28;20900;-79
2023/08/17 13:29:40;;;;;;;15.80;14.93;;;;;;;;;;5048749;28;20506;-79
2023/08/17 13:32:07;;;;;;;32.42;30.33;;;;;;;;;;5046315;28;20798;-80
2023/08/17 13:34:34;;;;;;;2.88;2.78;;;;;;;;;;5047165;28;20454;-81
2023/08/17 13:37:02;;;;;;;2.67;2.47;;;;;;;;;;5048105;28;21215;-81
2023/08/17 13:39:32;;;;;;;1.88;1.70;;;;;;;;;;5044839;28;20550;-80
2023/08/17 13:41:59;;;;;;;2.50;1.83;;;;;;;;;;5046828;28;20435;-80
2023/08/17 13:44:26;;;;;;;2.60;1.90;;;;;;;;;;5047935;28;20439;-80
2023/08/17 13:46:53;;;;;;;2.17;1.70;;;;;;;;;;5046850;28;20999;-79
2023/08/17 13:49:20;;;;;;;1.60;1.52;;;;;;;;;;5030104;28;20451;-80
2023/08/17 13:51:48;;;;;;;2.17;1.75;;;;;;;;;;5035372;28;20447;-80
2023/08/17 13:54:15;;;;;;;1.60;1.50;;;;;;;;;;5048542;28;20450;-81
2023/08/17 13:56:42;;;;;;;28.95;27.13;;;;;;;;;;5049532;28;20429;-81
2023/08/17 13:59:09;;;;;;;6.05;5.80;;;;;;;;;;5048553;28;22964;-81
2023/08/17 14:01:36;;;;;;;2.33;2.15;;;;;;;;;;5024551;28;21003;-80
2023/08/17 14:04:06;;;;;;;1.40;1.30;;;;;;;;;;5046478;28;20897;-81
2023/08/17 14:06:33;;;;;;;8.47;8.07;;;;;;;;;;5028583;28;20520;-80
2023/08/17 14:09:03;;;;;;;2.90;2.80;;;;;;;;;;5046205;28;20468;-80
2023/08/17 14:11:31;;;;;;;195.57;180.10;;;;;;;;;;5029384;28;20439;-81
2023/08/17 14:13:58;;;;;;;897.20;822.47;;;;;;;;;;5027620;28;20854;-81
2023/08/17 14:16:25;;;;;;;762.40;696.85;;;;;;;;;;5047537;28;20690;-81
2023/08/17 14:18:53;;;;;;;482.63;440.98;;;;;;;;;;5052832;28;20435;-80
2023/08/17 14:21:20;;;;;;;331.07;302.60;;;;;;;;;;5053517;28;20435;-79
2023/08/17 14:23:47;;;;;;;121.03;112.07;;;;;;;;;;5056347;28;20431;-80
2023/08/17 14:26:15;;;;;;;101.53;93.83;;;;;;;;;;5041529;28;20536;-81